Weather at Aughrim Airstrip

Public forecast

Using degrees Celsius for public forecast. Weather courtesy of forecast.io.

Closest aviation weather report (METAR) to Aughrim Airstrip

Report is more than 6 hours old.

Closest report is George Best Belfast City Airport, 32.1 nm (59.4 km) N.

2022/11/14 15:20 (retrieved 2 years ago)

EGAC 141520Z AUTO 16007KT 9999 OVC037 12/10 Q1001

Closest aviation forecast (TAF) to Aughrim Airstrip

Forecast is more than 12 hours old.

Closest forecast is Belfast International Airport, 34.4 nm (63.6 km) N.

2023/02/22 18:00 (retrieved 1 year ago)

TAF EGAA 221654Z 2218/2318 34015G25KT 9999 SCT025 PROB30 TEMPO 2218/2220 7000 SHRA BECMG 2219/2222 35008KT BECMG 2313/2316 29010KT